Time;durP1;ratioP1;P1;durP2;ratioP2;P2;SDS_P1;SDS_P2;PMS_P1;PMS_P2;Temp;Humidity;BMP_temperature;BMP_pressure;BME280_temperature;BME280_humidity;BME280_pressure;Samples;Min_cycle;Max_cycle;Signal;HPM_P1;HPM_P2
2023/01/10 00:01:16;;;;;;;2.80;1.30;;;7.40;94.30;;;7.73;62.67;98397.84;4969276;28;123844;-74
2023/01/10 00:03:42;;;;;;;2.67;1.37;;;9.00;95.00;;;7.73;62.79;98397.84;4967827;28;124259;-72
2023/01/10 00:06:08;;;;;;;1.10;1.00;;;7.40;94.40;;;7.72;62.63;98400.91;4964894;28;114279;-72
2023/01/10 00:08:35;;;;;;;1.30;1.00;;;7.30;94.40;;;7.69;62.88;98393.28;4970576;28;112747;-73
2023/01/10 00:13:22;;;;;;;1.30;1.07;;;7.30;94.40;;;7.69;62.93;98401.53;4963508;28;123813;-70
2023/01/10 00:13:52;;;;;;;1.40;1.20;;;8.30;94.80;;;7.67;62.83;98406.50;4973957;28;123695;-72
2023/01/10 00:16:19;;;;;;;1.20;1.00;;;7.30;94.40;;;7.68;62.72;98416.38;4950321;28;113914;-72
2023/01/10 00:18:47;;;;;;;1.40;1.00;;;7.40;94.60;;;7.69;63.11;98412.53;4964903;28;114340;-72
2023/01/10 00:21:14;;;;;;;1.00;0.80;;;7.30;94.50;;;7.70;63.00;98406.69;4960982;28;123317;-72
2023/01/10 00:23:42;;;;;;;2.03;0.87;;;7.30;94.50;;;7.70;62.92;98411.41;4962866;28;124211;-72
2023/01/10 00:26:09;;;;;;;0.90;0.80;;;7.30;94.50;;;7.71;63.07;98424.00;4948777;28;113513;-72
2023/01/10 00:28:38;;;;;;;1.47;1.10;;;7.30;94.60;;;7.72;63.04;98415.47;4964576;28;112328;-72
2023/01/10 00:31:05;;;;;;;1.10;1.00;;;7.30;94.60;;;7.72;63.36;98431.97;4964363;28;124063;-73
2023/01/10 00:33:33;;;;;;;1.50;1.20;;;7.30;94.60;;;7.73;63.29;98424.53;4964587;28;123696;-72
2023/01/10 00:36:02;;;;;;;1.30;1.10;;;7.30;94.60;;;7.73;63.24;98422.59;4960017;28;114046;-72
2023/01/10 00:38:30;;;;;;;2.90;1.10;;;7.30;94.60;;;7.74;63.35;98443.50;4964487;28;113241;-72
2023/01/10 00:40:58;;;;;;;2.50;1.30;;;7.30;94.70;;;7.74;63.34;98439.94;4996356;28;124203;-73
2023/01/10 00:46:10;;;;;;;1.20;1.10;;;7.30;94.80;;;7.74;63.49;98445.44;4969347;28;115711;-72
2023/01/10 00:48:37;;;;;;;1.57;1.00;;;7.30;94.80;;;7.75;63.61;98453.38;4969257;28;114628;-73
2023/01/10 00:51:04;;;;;;;1.97;1.10;;;7.40;94.90;;;7.79;63.84;98458.25;4970021;28;124032;-73
2023/01/10 00:53:31;;;;;;;1.40;1.00;;;7.40;94.90;;;7.83;63.73;98464.78;4960074;28;123552;-73
2023/01/10 00:55:57;;;;;;;1.83;1.10;;;5.40;94.10;;;7.83;63.45;98465.59;4996926;28;115379;-73
2023/01/10 00:58:24;;;;;;;1.73;1.00;;;7.40;94.90;;;7.84;63.65;98467.22;4963474;28;113978;-72
2023/01/10 01:00:50;;;;;;;4.60;0.90;;;7.40;95.00;;;7.84;63.56;98469.16;4967836;28;124167;-72
2023/01/10 01:03:22;;;;;;;1.93;1.10;;;7.40;95.00;;;7.85;63.68;98468.06;4969821;28;124045;-72
2023/01/10 01:05:48;;;;;;;1.00;0.90;;;7.50;95.10;;;7.84;63.71;98477.41;4968327;28;114164;-74
2023/01/10 01:08:19;;;;;;;2.27;1.20;;;7.50;95.10;;;7.79;63.69;98486.59;4969298;28;113927;-72
2023/01/10 01:10:47;;;;;;;1.30;1.10;;;7.50;95.10;;;7.77;63.69;98493.50;4982582;28;124500;-72
2023/01/10 01:13:19;;;;;;;1.50;1.20;;;7.40;95.10;;;7.74;64.35;98498.50;4968641;28;123629;-73
2023/01/10 01:15:46;;;;;;;1.30;1.20;;;7.40;95.20;;;7.74;63.97;98500.44;4969685;28;114838;-72
2023/01/10 01:18:19;;;;;;;1.80;1.30;;;7.40;95.20;;;7.76;64.35;98503.66;4964637;28;113968;-72
2023/01/10 01:20:47;;;;;;;1.73;1.13;;;7.30;95.20;;;7.78;64.17;98512.44;4953712;28;123079;-72
2023/01/10 01:23:14;;;;;;;1.10;1.00;;;7.40;95.30;;;7.80;64.33;98515.72;4964433;28;123727;-72
2023/01/10 01:25:41;;;;;;;1.73;1.10;;;7.40;95.30;;;7.80;64.13;98529.47;4967591;28;113994;-72
2023/01/10 01:28:11;;;;;;;3.37;1.10;;;7.40;95.30;;;7.82;63.98;98537.41;4970017;28;114349;-72
2023/01/10 01:30:38;;;;;;;2.00;1.10;;;7.50;95.30;;;7.82;64.01;98529.16;4965231;28;124906;-72
2023/01/10 01:33:05;;;;;;;1.40;1.30;;;7.40;95.20;;;7.79;63.94;98530.59;4968652;28;123923;-72
2023/01/10 01:35:32;;;;;;;1.43;1.10;;;7.40;95.20;;;7.78;63.82;98530.88;4968881;28;115136;-72
2023/01/10 01:37:58;;;;;;;1.87;1.10;;;7.30;95.20;;;7.74;63.98;98533.44;4968421;28;115057;-72
2023/01/10 01:40:25;;;;;;;2.50;1.07;;;7.30;95.20;;;7.71;64.35;98534.00;4970355;28;124021;-72
2023/01/10 01:42:54;;;;;;;1.20;1.00;;;7.60;95.40;;;7.65;64.41;98552.53;4968001;28;123427;-72
2023/01/10 01:45:36;;;;;;;1.93;1.20;;;7.30;95.20;;;7.62;64.47;98566.06;4971792;28;113743;-72
2023/01/10 01:48:19;;;;;;;2.07;1.00;;;7.20;95.20;;;7.59;64.41;98574.91;4986877;28;113865;-72
2023/01/10 01:50:54;;;;;;;1.10;1.00;;;7.20;95.30;;;7.55;64.26;98580.19;4961425;28;124085;-72
2023/01/10 01:53:33;;;;;;;2.23;1.00;;;7.20;95.30;;;7.55;64.30;98593.09;4970622;28;124122;-72
2023/01/10 01:56:13;;;;;;;2.43;1.10;;;7.30;95.30;;;7.51;64.22;98590.94;4971172;28;114050;-72
2023/01/10 01:58:48;;;;;;;1.10;1.00;;;7.20;95.20;;;7.50;64.50;98605.00;4968115;28;113645;-72
2023/01/10 02:01:16;;;;;;;0.90;0.80;;;7.10;95.30;;;7.47;64.46;98603.66;4968309;28;124083;-72
2023/01/10 02:03:46;;;;;;;1.40;0.90;;;7.10;95.30;;;7.49;64.56;98604.16;4968010;28;123991;-72
2023/01/10 02:06:16;;;;;;;1.00;0.90;;;7.10;95.30;;;7.49;64.74;98601.41;4968387;28;114976;-72
2023/01/10 02:08:52;;;;;;;1.10;0.90;;;7.60;95.50;;;7.54;64.68;98611.53;4965269;28;114016;-72
2023/01/10 02:11:19;;;;;;;1.13;1.00;;;7.30;95.40;;;7.52;64.70;98611.84;4988254;28;124074;-72
2023/01/10 02:13:47;;;;;;;2.80;1.00;;;7.10;95.30;;;7.52;64.54;98635.75;4970448;28;123520;-73
2023/01/10 02:16:33;;;;;;;1.10;1.00;;;7.10;95.30;;;7.52;64.10;98642.09;4970721;28;114955;-72
2023/01/10 02:19:44;;;;;;;1.73;1.30;;;7.20;95.40;;;7.51;64.64;98645.94;4968010;28;113908;-72
2023/01/10 02:22:25;;;;;;;2.13;1.30;;;7.10;95.30;;;7.49;64.71;98652.84;4969052;28;124705;-72
2023/01/10 02:24:57;;;;;;;1.30;1.20;;;7.10;95.40;;;7.49;64.80;98658.34;4960944;28;124002;-71
2023/01/10 02:28:10;;;;;;;1.23;1.00;;;7.10;95.50;;;7.45;64.85;98660.88;4962769;28;114108;-74
2023/01/10 02:30:45;;;;;;;2.20;1.00;;;7.10;95.60;;;7.40;65.27;98671.94;4970549;28;113811;-71
2023/01/10 02:33:25;;;;;;;1.30;1.20;;;7.10;95.70;;;7.36;65.62;98676.38;4960937;28;124055;-71
2023/01/10 02:36:19;;;;;;;1.03;0.93;;;7.00;95.80;;;7.34;65.52;98684.09;4964865;28;123904;-75
2023/01/10 02:38:57;;;;;;;1.40;1.13;;;7.00;95.90;;;7.32;65.99;98699.25;4999527;28;113138;-71
2023/01/10 02:41:39;;;;;;;1.20;1.10;;;7.00;96.10;;;7.32;66.09;98697.31;4960722;28;113749;-71
2023/01/10 02:44:21;;;;;;;2.27;1.40;;;7.00;96.20;;;7.33;66.44;98692.63;4964416;28;124009;-74
2023/01/10 02:46:48;;;;;;;1.63;1.10;;;7.00;96.20;;;7.31;66.48;98706.69;4966296;28;124227;-72
2023/01/10 02:49:15;;;;;;;1.73;1.10;;;7.00;96.30;;;7.30;66.45;98699.53;4968862;28;114252;-71
2023/01/10 02:51:41;;;;;;;1.90;1.20;;;7.00;96.40;;;7.29;66.39;98709.72;4969668;28;113799;-71
2023/01/10 02:54:23;;;;;;;2.20;1.13;;;6.90;96.40;;;7.27;66.50;98700.13;4968056;28;124105;-71
2023/01/10 02:57:01;;;;;;;1.30;1.20;;;6.90;96.40;;;7.23;66.15;98715.56;4970079;28;122811;-72
2023/01/10 02:59:52;;;;;;;1.50;1.00;;;6.90;96.40;;;7.18;66.54;98710.94;4972347;28;114405;-71
2023/01/10 03:02:57;;;;;;;1.23;1.00;;;6.80;96.40;;;7.14;66.32;98714.56;4972124;28;114342;-71
2023/01/10 03:05:55;;;;;;;1.87;1.00;;;6.80;96.30;;;7.10;66.34;98721.75;4972167;28;122683;-72
2023/01/10 03:08:24;;;;;;;1.87;1.13;;;6.80;96.40;;;7.06;66.46;98736.06;4971197;28;123916;-72
2023/01/10 03:11:00;;;;;;;2.10;1.10;;;6.70;96.40;;;7.06;66.19;98738.00;4968286;28;115203;-71
2023/01/10 03:13:52;;;;;;;1.47;1.20;;;6.70;96.40;;;7.08;66.74;98736.59;4949278;28;113011;-73
2023/01/10 03:16:27;;;;;;;3.33;1.50;;;6.70;96.40;;;7.07;66.60;98750.63;4953745;28;123068;-72
2023/01/10 03:18:59;;;;;;;3.17;1.27;;;6.70;96.40;;;7.04;66.08;98757.53;4967299;28;123755;-72
2023/01/10 03:21:28;;;;;;;1.87;1.20;;;6.70;96.50;;;7.07;66.30;98762.44;4953182;28;114309;-72
2023/01/10 03:24:04;;;;;;;3.07;1.53;;;6.70;96.40;;;7.08;66.29;98763.25;4970453;28;114432;-71
2023/01/10 03:26:48;;;;;;;2.37;1.40;;;7.40;96.70;;;7.07;66.08;98772.63;4971572;28;123464;-72
2023/01/10 03:29:23;;;;;;;4.40;1.37;;;6.70;96.40;;;7.08;66.29;98771.50;4966974;28;123841;-71
2023/01/10 03:31:57;;;;;;;3.97;1.57;;;6.70;96.40;;;7.11;66.27;98789.31;4967001;28;113991;-71
2023/01/10 03:34:24;;;;;;;2.20;1.67;;;6.70;96.30;;;7.12;66.44;98801.94;4966691;28;113419;-71
2023/01/10 03:37:13;;;;;;;2.90;1.40;;;6.70;96.40;;;7.15;66.33;98817.88;4970150;28;124010;-71
2023/01/10 03:40:03;;;;;;;8.30;1.87;;;6.70;96.30;;;7.15;65.83;98815.13;4983300;28;125051;-71
2023/01/10 03:46:02;;;;;;;4.70;2.23;;;6.70;96.30;;;7.15;65.88;98823.38;4973523;28;113445;-72
2023/01/10 03:48:37;;;;;;;4.87;1.87;;;6.80;96.20;;;7.16;66.19;98822.25;4970417;28;123013;-72
2023/01/10 03:51:06;;;;;;;7.87;1.97;;;6.80;96.20;;;7.17;66.02;98832.13;4967732;28;123788;-72
2023/01/10 03:53:36;;;;;;;3.13;1.57;;;6.80;96.20;;;7.18;65.92;98822.78;4971371;28;113915;-71
2023/01/10 03:56:03;;;;;;;3.03;1.40;;;6.80;96.20;;;7.18;65.73;98822.78;4947887;28;113703;-71
2023/01/10 03:58:30;;;;;;;4.37;1.90;;;6.80;96.20;;;7.18;65.83;98828.28;4970136;28;124023;-71
2023/01/10 04:00:56;;;;;;;4.60;1.80;;;6.80;96.10;;;7.18;65.42;98836.53;4965384;28;123812;-71
2023/01/10 04:03:23;;;;;;;3.03;1.90;;;6.90;96.20;;;7.20;65.85;98828.78;4967851;28;114110;-72
2023/01/10 04:05:49;;;;;;;2.60;1.30;;;6.80;96.20;;;7.21;65.52;98849.69;4968405;28;113820;-71
2023/01/10 04:08:19;;;;;;;5.37;1.53;;;6.60;96.00;;;7.22;65.82;98851.31;4966061;28;123995;-71
2023/01/10 04:10:48;;;;;;;3.90;1.47;;;6.80;96.10;;;7.24;65.21;98855.41;4967525;28;124291;-71
2023/01/10 04:13:15;;;;;;;5.40;1.93;;;6.80;96.10;;;7.25;65.20;98861.72;4965650;28;115466;-72
2023/01/10 04:15:41;;;;;;;2.60;1.40;;;6.90;96.10;;;7.25;65.20;98868.06;4967308;28;114948;-71
2023/01/10 04:18:08;;;;;;;1.50;1.20;;;7.00;96.10;;;7.24;64.97;98863.66;4985232;28;123306;-71
2023/01/10 04:20:34;;;;;;;2.00;1.30;;;6.80;95.90;;;7.25;64.99;98868.06;4969147;28;124582;-71
2023/01/10 04:23:01;;;;;;;1.70;1.27;;;6.90;95.90;;;7.28;65.33;98877.63;4968773;28;114291;-72
2023/01/10 04:25:28;;;;;;;1.50;1.37;;;6.80;95.90;;;7.27;64.90;98881.50;4954232;28;113699;-72
2023/01/10 04:27:54;;;;;;;1.83;1.40;;;7.00;95.90;;;7.24;65.07;98887.56;4970373;28;124338;-72
2023/01/10 04:30:21;;;;;;;3.13;1.70;;;6.90;95.80;;;7.21;64.96;98894.47;4971663;28;123619;-72
2023/01/10 04:32:47;;;;;;;5.63;1.90;;;6.80;95.80;;;7.18;64.94;98895.03;4974354;28;115815;-71
2023/01/10 04:35:14;;;;;;;4.77;1.50;;;6.80;95.80;;;7.17;65.10;98892.56;4971073;28;113870;-72
2023/01/10 04:37:41;;;;;;;2.17;1.30;;;6.80;95.70;;;7.15;64.89;98897.56;4973295;28;124070;-71
2023/01/10 04:40:09;;;;;;;10.33;1.80;;;6.80;95.70;;;7.13;64.49;98908.81;4970656;28;123949;-71
2023/01/10 04:42:35;;;;;;;4.00;1.53;;;6.70;95.70;;;7.12;65.00;98917.34;4967853;28;114137;-71
2023/01/10 04:45:03;;;;;;;1.73;1.40;;;6.70;95.70;;;7.10;64.56;98930.56;4970655;28;113909;-71
2023/01/10 04:47:32;;;;;;;3.87;1.70;;;6.70;95.70;;;7.11;64.81;98938.50;4973737;28;123402;-71
2023/01/10 04:50:36;;;;;;;5.00;2.00;;;6.70;95.70;;;7.15;64.92;98944.25;4972758;28;122849;-71
2023/01/10 04:53:05;;;;;;;7.73;1.80;;;6.80;95.70;;;7.13;64.90;98949.22;4970336;28;113381;-72
2023/01/10 04:55:32;;;;;;;6.17;2.00;;;6.80;95.60;;;7.12;64.81;98948.41;4972342;28;113602;-72
2023/01/10 04:57:59;;;;;;;7.13;1.83;;;7.10;95.70;;;7.13;64.45;98962.94;4973151;28;124532;-72
2023/01/10 05:00:27;;;;;;;2.80;1.40;;;6.80;95.50;;;7.12;64.66;98956.63;4971646;28;124286;-72
2023/01/10 05:02:58;;;;;;;5.23;1.80;;;6.70;95.40;;;7.12;64.17;98958.53;4967419;28;115858;-72
2023/01/10 05:05:25;;;;;;;4.90;1.90;;;6.70;95.30;;;7.12;64.07;98972.28;4973598;28;114788;-73
2023/01/10 05:07:51;;;;;;;2.60;1.50;;;6.70;95.30;;;7.11;63.95;98962.41;4977943;28;122059;-73
2023/01/10 05:10:18;;;;;;;6.13;2.00;;;6.70;95.30;;;7.10;64.38;98974.50;4977200;28;123058;-71
2023/01/10 05:12:45;;;;;;;8.03;2.70;;;6.70;95.20;;;7.09;63.80;98979.16;4979041;28;113733;-73
2023/01/10 05:15:12;;;;;;;13.30;3.07;;;6.70;95.10;;;7.06;63.54;98980.56;4974908;28;113886;-76
2023/01/10 05:17:39;;;;;;;5.00;1.80;;;7.50;95.40;;;7.03;63.61;98983.06;4974758;28;123180;-75
2023/01/10 05:20:07;;;;;;;8.07;2.50;;;6.70;95.00;;;7.01;63.94;98977.03;4972751;28;123770;-75
2023/01/10 05:22:33;;;;;;;7.53;2.30;;;6.70;95.00;;;7.02;63.43;98982.25;4975878;28;113910;-72
2023/01/10 05:25:00;;;;;;;3.40;1.90;;;7.70;95.30;;;7.04;63.44;98985.53;4968172;28;113617;-72
2023/01/10 05:27:26;;;;;;;5.40;2.20;;;6.60;94.80;;;7.05;62.75;99003.66;4974486;28;123552;-72
2023/01/10 05:29:53;;;;;;;7.70;2.30;;;6.70;94.80;;;7.07;63.30;99009.69;4973753;28;122502;-72
2023/01/10 05:32:19;;;;;;;6.33;2.27;;;7.90;95.20;;;7.11;62.51;99009.94;4970509;28;114052;-71
2023/01/10 05:34:46;;;;;;;4.27;2.00;;;6.70;94.60;;;7.12;62.40;99010.75;4955031;28;113252;-71
2023/01/10 05:37:12;;;;;;;7.50;2.50;;;6.70;94.50;;;7.11;62.76;99001.69;4970606;28;124061;-72
2023/01/10 05:39:40;;;;;;;4.37;2.17;;;6.70;94.50;;;7.12;62.19;99006.09;4969503;28;123424;-72
2023/01/10 05:42:06;;;;;;;8.23;2.10;;;6.70;94.40;;;7.13;62.90;99013.22;4977625;28;114267;-71
2023/01/10 05:44:33;;;;;;;5.80;1.80;;;6.70;94.40;;;7.18;62.47;99031.63;4970121;28;113930;-71
2023/01/10 05:46:59;;;;;;;5.83;2.20;;;6.80;94.40;;;7.18;62.48;99028.88;4969198;28;124115;-71
2023/01/10 05:49:26;;;;;;;10.43;2.60;;;7.30;94.50;;;7.18;62.31;99020.63;4970820;28;123887;-71
2023/01/10 05:51:52;;;;;;;9.20;2.57;;;6.80;94.30;;;7.15;61.84;99032.19;4967835;28;113846;-72
2023/01/10 05:54:19;;;;;;;6.30;2.40;;;6.70;94.20;;;7.13;62.56;99032.47;4966340;28;114627;-71
2023/01/10 05:56:45;;;;;;;8.53;2.80;;;6.70;94.20;;;7.12;62.07;99030.81;4969542;28;124123;-71
2023/01/10 05:59:11;;;;;;;8.17;3.07;;;6.70;94.20;;;7.12;62.22;99029.97;4969136;28;123784;-71
2023/01/10 06:01:38;;;;;;;9.93;2.47;;;6.70;94.20;;;7.13;61.82;99061.88;4971544;28;112582;-71
2023/01/10 06:04:04;;;;;;;10.40;2.83;;;6.70;94.00;;;7.10;62.01;99046.75;4967797;28;113989;-71
2023/01/10 06:06:33;;;;;;;9.00;2.47;;;6.70;93.90;;;7.10;61.85;99051.44;4957874;28;124001;-71
2023/01/10 06:08:59;;;;;;;7.90;2.10;;;6.70;93.90;;;7.12;61.81;99062.94;4956566;28;123859;-71
2023/01/10 06:11:28;;;;;;;5.87;2.17;;;6.70;94.00;;;7.14;61.44;99061.56;4953840;28;114238;-71
2023/01/10 06:13:58;;;;;;;5.93;1.93;;;6.70;93.80;;;7.17;61.68;99063.75;4990881;28;114312;-71
2023/01/10 06:16:24;;;;;;;9.03;2.33;;;6.80;93.80;;;7.20;61.46;99076.09;4968475;28;125283;-71
2023/01/10 06:18:51;;;;;;;7.30;1.90;;;6.80;93.80;;;7.23;61.10;99062.63;4968928;28;123551;-76
2023/01/10 06:21:18;;;;;;;8.30;2.57;;;6.80;93.70;;;7.29;61.09;99071.66;4969238;28;113381;-71
2023/01/10 06:23:44;;;;;;;5.73;1.73;;;6.90;93.80;;;7.32;60.68;99071.09;4991478;28;113755;-71
2023/01/10 06:26:11;;;;;;;8.70;2.00;;;6.90;93.50;;;7.34;60.83;99079.88;4954014;28;123927;-71
2023/01/10 06:28:39;;;;;;;7.03;2.20;;;6.90;93.50;;;7.37;60.70;99075.75;4958539;28;123911;-72
2023/01/10 06:31:07;;;;;;;8.57;2.20;;;6.90;93.40;;;7.40;60.50;99084.22;4983536;28;113584;-72
2023/01/10 06:33:34;;;;;;;9.20;2.40;;;7.00;93.40;;;7.44;60.21;99085.31;4961825;28;113930;-72
2023/01/10 06:36:01;;;;;;;7.70;2.70;;;7.70;93.60;;;7.48;60.28;99091.88;4992320;28;124432;-73
2023/01/10 06:38:28;;;;;;;13.47;2.30;;;7.00;93.20;;;7.50;59.73;99100.66;4968906;28;124533;-72
2023/01/10 06:40:54;;;;;;;7.63;1.90;;;7.00;93.10;;;7.52;59.96;99111.34;4968166;28;115269;-72
2023/01/10 06:43:21;;;;;;;9.33;2.00;;;7.10;93.10;;;7.55;60.00;99108.06;5001103;28;114727;-72
2023/01/10 06:45:47;;;;;;;10.90;2.40;;;7.10;93.10;;;7.57;59.77;99110.50;4999958;28;124570;-72
2023/01/10 06:48:14;;;;;;;2.70;1.67;;;7.10;93.30;;;7.57;59.75;99110.50;4968453;28;123889;-72
2023/01/10 06:50:40;;;;;;;6.40;2.00;;;7.10;92.90;;;7.58;59.50;99123.16;4972017;28;114261;-72
2023/01/10 06:53:08;;;;;;;8.20;1.87;;;8.30;93.40;;;7.57;59.23;99119.56;4974931;28;111928;-72
2023/01/10 06:55:34;;;;;;;6.10;2.13;;;7.20;92.80;;;7.59;59.13;99124.81;4968125;28;123994;-72
2023/01/10 06:58:03;;;;;;;6.13;2.00;;;7.10;92.80;;;7.62;59.31;99132.47;4969935;28;123757;-72
2023/01/10 07:00:30;;;;;;;3.73;2.00;;;7.30;92.90;;;7.65;59.57;99145.66;4966683;28;113282;-77
2023/01/10 07:03:18;;;;;;;10.53;2.30;;;7.20;93.20;;;7.67;59.33;99144.25;4975767;28;114053;-74
2023/01/10 07:05:44;;;;;;;6.37;1.83;;;7.80;93.00;;;7.68;59.03;99145.09;4914211;28;124112;-74
2023/01/10 07:08:11;;;;;;;6.10;2.03;;;7.30;92.70;;;7.66;58.90;99156.38;4899494;28;125272;-75
2023/01/10 07:10:40;;;;;;;9.40;2.17;;;7.30;92.50;;;7.67;58.92;99158.00;4927980;28;114515;-74
2023/01/10 07:13:07;;;;;;;6.63;2.20;;;7.20;92.50;;;7.69;58.75;99157.75;4926490;28;113863;-74
2023/01/10 07:15:35;;;;;;;6.27;2.00;;;7.30;92.40;;;7.69;58.27;99163.25;4929261;28;124103;-74
2023/01/10 07:18:02;;;;;;;7.20;2.23;;;7.30;92.40;;;7.68;58.56;99173.44;4910469;28;124013;-74
2023/01/10 07:20:28;;;;;;;5.67;2.20;;;7.30;92.30;;;7.70;58.49;99176.69;4928534;28;114278;-74
2023/01/10 07:22:59;;;;;;;3.10;1.90;;;7.30;92.30;;;7.73;58.65;99197.31;4911207;28;113841;-74
2023/01/10 07:25:29;;;;;;;4.07;2.10;;;7.30;92.30;;;7.73;58.50;99192.63;4919456;28;123766;-74
2023/01/10 07:27:56;;;;;;;5.10;1.90;;;7.30;92.30;;;7.74;58.29;99194.28;4926038;28;124240;-74
2023/01/10 07:30:23;;;;;;;4.03;1.50;;;7.30;92.50;;;7.73;58.32;99192.63;4909876;28;114155;-74
2023/01/10 07:32:56;;;;;;;6.53;1.73;;;7.30;92.20;;;7.71;58.02;99183.84;4927471;28;115265;-74
2023/01/10 07:35:23;;;;;;;7.70;2.27;;;7.30;92.10;;;7.71;58.31;99191.25;4893600;28;123975;-75
2023/01/10 07:37:50;;;;;;;7.60;1.97;;;7.30;92.20;;;7.71;58.11;99188.50;4897887;28;123658;-74
2023/01/10 07:40:17;;;;;;;6.43;2.50;;;7.30;92.20;;;7.74;58.45;99183.28;4892272;28;115217;-74
2023/01/10 07:42:44;;;;;;;7.63;1.70;;;7.30;92.30;;;7.76;58.42;99188.47;4935203;28;113931;-73
2023/01/10 07:45:10;;;;;;;8.87;2.23;;;7.30;92.20;;;7.80;58.30;99197.00;4951808;28;124069;-75
2023/01/10 07:47:37;;;;;;;3.63;1.70;;;7.30;92.20;;;7.84;58.70;99211.81;4964063;28;124021;-74
2023/01/10 07:50:04;;;;;;;6.37;2.97;;;7.40;92.20;;;7.85;58.44;99227.25;5001226;28;113329;-75
2023/01/10 07:52:32;;;;;;;7.80;2.30;;;7.40;92.20;;;7.85;58.44;99230.81;4971290;28;113790;-73
2023/01/10 07:54:59;;;;;;;6.33;2.30;;;7.40;92.20;;;7.87;58.38;99241.50;4969275;28;123403;-74
2023/01/10 07:57:25;;;;;;;3.33;1.60;;;8.10;92.50;;;7.89;58.30;99231.88;4970353;28;123969;-74
2023/01/10 07:59:52;;;;;;;4.40;1.83;;;7.40;92.10;;;7.91;58.44;99235.16;4971491;28;114650;-75
2023/01/10 08:02:18;;;;;;;4.43;1.70;;;8.60;92.60;;;7.93;58.47;99243.97;4971029;28;114071;-78
2023/01/10 08:04:45;;;;;;;3.83;2.00;;;7.50;92.20;;;7.96;57.93;99256.34;4974514;28;122458;-75
2023/01/10 08:07:12;;;;;;;4.87;2.13;;;7.50;92.10;;;7.92;57.96;99250.56;4967613;28;123904;-75
2023/01/10 08:09:38;;;;;;;12.90;2.50;;;7.50;92.00;;;7.90;58.18;99252.78;4981400;28;115237;-75
2023/01/10 08:12:05;;;;;;;5.10;2.13;;;7.50;92.10;;;7.90;58.19;99250.03;4971198;28;114102;-76
2023/01/10 08:14:32;;;;;;;6.90;2.20;;;7.50;92.00;;;7.90;58.09;99241.78;4966399;28;123748;-76
2023/01/10 08:17:00;;;;;;;8.33;2.07;;;7.50;92.00;;;7.89;57.94;99245.63;4965721;28;123650;-77
2023/01/10 08:19:26;;;;;;;7.03;1.93;;;7.60;92.00;;;7.92;58.28;99250.56;4970150;28;114854;-76
2023/01/10 08:21:55;;;;;;;5.93;2.13;;;7.50;92.30;;;7.94;58.04;99256.59;4969165;28;114619;-78
2023/01/10 08:24:21;;;;;;;4.60;1.80;;;7.50;92.00;;;7.96;57.71;99259.09;4970740;28;124085;-74
2023/01/10 08:26:47;;;;;;;5.67;1.80;;;7.50;92.00;;;7.97;57.95;99274.47;4971352;28;122941;-77
2023/01/10 08:29:14;;;;;;;8.93;2.00;;;7.50;92.00;;;7.98;57.74;99259.63;4968625;28;113954;-75
2023/01/10 08:31:41;;;;;;;7.47;1.93;;;7.50;92.00;;;8.00;57.86;99273.91;4971379;28;114162;-75
2023/01/10 08:34:07;;;;;;;7.50;2.30;;;7.50;92.00;;;8.00;57.87;99278.59;4970781;28;124065;-76
2023/01/10 08:36:34;;;;;;;4.77;1.53;;;7.60;91.90;;;8.01;57.92;99281.06;4969737;28;122732;-78
2023/01/10 08:39:00;;;;;;;8.70;2.80;;;7.60;91.90;;;8.04;57.88;99290.69;4966529;28;114380;-77
2023/01/10 08:41:27;;;;;;;3.83;1.60;;;7.60;92.00;;;8.06;57.51;99288.44;4973351;28;113838;-77
2023/01/10 08:43:53;;;;;;;9.43;2.10;;;7.60;91.90;;;8.07;57.69;99279.94;4974031;28;122902;-78
2023/01/10 08:46:20;;;;;;;4.53;1.97;;;7.60;91.90;;;8.10;57.85;99293.13;4971993;28;123081;-78
2023/01/10 08:48:49;;;;;;;3.73;1.87;;;7.60;91.90;;;8.14;57.87;99296.09;4972343;28;114632;-76
2023/01/10 08:51:15;;;;;;;5.73;2.13;;;8.00;92.00;;;8.15;57.72;99293.09;4984839;28;114345;-76
2023/01/10 08:53:42;;;;;;;12.90;2.53;;;7.70;91.80;;;8.17;57.79;99296.38;4974141;28;121850;-78
2023/01/10 08:56:09;;;;;;;7.03;2.03;;;7.70;91.80;;;8.20;57.42;99300.50;4972566;28;124257;-78
2023/01/10 08:58:35;;;;;;;9.10;1.67;;;7.70;91.80;;;8.22;57.60;99305.69;4975813;28;114242;-78
2023/01/10 09:01:13;;;;;;;9.13;2.13;;;7.70;91.80;;;8.24;57.34;99307.06;4977341;28;114170;-76
2023/01/10 09:03:39;;;;;;;3.43;1.70;;;7.80;91.80;;;8.24;57.43;99311.75;4967402;28;124251;-76
2023/01/10 09:06:07;;;;;;;5.30;1.90;;;7.80;91.80;;;8.25;57.42;99314.22;4967290;28;123897;-75
2023/01/10 09:08:34;;;;;;;5.00;1.93;;;7.80;91.80;;;8.24;57.58;99322.75;4973276;28;115353;-76
2023/01/10 09:11:04;;;;;;;9.10;2.20;;;8.00;91.80;;;8.25;57.32;99314.22;4969726;28;115083;-78
2023/01/10 09:13:32;;;;;;;4.10;1.73;;;7.80;91.80;;;8.28;57.67;99316.41;4973369;28;123604;-75
2023/01/10 09:15:59;;;;;;;3.47;1.40;;;7.80;91.80;;;8.33;57.71;99321.88;4970801;28;124542;-76
2023/01/10 09:18:25;;;;;;;3.87;2.10;;;7.90;91.90;;;8.39;57.54;99334.53;5002628;28;114009;-76
2023/01/10 09:20:52;;;;;;;6.70;3.13;;;7.90;91.90;;;8.44;57.54;99336.44;4952833;28;114640;-76
2023/01/10 09:23:21;;;;;;;2.43;1.73;;;7.90;91.90;;;8.47;57.33;99337.81;4987407;28;124045;-76
2023/01/10 09:25:53;;;;;;;5.70;2.23;;;8.00;91.90;;;8.50;57.17;99340.00;4970176;28;124188;-74
2023/01/10 09:28:21;;;;;;;4.40;2.13;;;6.90;91.40;;;8.50;57.24;99349.06;4980869;28;114347;-77
2023/01/10 09:30:47;;;;;;;5.87;2.13;;;8.00;91.80;;;8.53;57.26;99339.41;4994840;28;112707;-75
2023/01/10 09:33:14;;;;;;;3.87;1.73;;;8.00;91.80;;;8.54;57.26;99349.31;4967951;28;123406;-75
2023/01/10 09:35:42;;;;;;;2.77;1.70;;;8.00;91.80;;;8.53;57.07;99358.69;4968934;28;124201;-74
2023/01/10 09:38:15;;;;;;;4.23;1.90;;;8.10;91.80;;;8.53;57.09;99358.69;4968888;28;113248;-75
2023/01/10 09:41:40;;;;;;;6.73;1.50;;;8.00;91.80;;;8.54;57.64;99352.91;4997046;28;113164;-75
2023/01/10 09:44:44;;;;;;;8.77;2.60;;;8.10;91.90;;;8.53;57.39;99366.97;4944578;28;125540;-76
2023/01/10 09:47:47;;;;;;;5.80;2.03;;;8.00;91.90;;;8.53;57.48;99366.97;4969896;28;123001;-74
2023/01/10 09:50:28;;;;;;;13.73;2.80;;;8.00;92.00;;;8.56;57.59;99369.13;4986421;28;113472;-75
2023/01/10 09:53:23;;;;;;;3.93;1.80;;;8.10;92.10;;;8.57;57.98;99379.88;4963346;28;114208;-74
2023/01/10 09:55:56;;;;;;;10.33;2.63;;;8.10;92.10;;;8.58;57.62;99388.97;4972788;28;124696;-74
2023/01/10 09:58:27;;;;;;;6.13;2.30;;;8.10;92.00;;;8.57;57.65;99384.53;4968957;28;122584;-74
2023/01/10 10:01:00;;;;;;;4.83;1.83;;;8.10;92.10;;;8.58;57.69;99391.72;4970595;28;114982;-75
2023/01/10 10:03:41;;;;;;;7.00;2.40;;;8.10;92.10;;;8.55;58.06;99395.03;4968158;28;115752;-74
2023/01/10 10:06:12;;;;;;;2.90;1.70;;;8.00;92.10;;;8.53;58.26;99386.22;4967833;28;123904;-75
2023/01/10 10:08:43;;;;;;;6.70;2.37;;;8.00;92.20;;;8.55;58.38;99389.53;4965292;28;123833;-73
2023/01/10 10:11:25;;;;;;;6.83;2.47;;;8.00;92.30;;;8.61;58.45;99388.38;4971631;28;114458;-75
2023/01/10 10:14:10;;;;;;;7.13;2.10;;;8.10;92.40;;;8.64;58.47;99379.53;4970896;28;114172;-74
2023/01/10 10:17:17;;;;;;;4.63;2.00;;;8.10;92.50;;;8.67;58.52;99367.94;4992757;28;124162;-74
2023/01/10 10:19:59;;;;;;;5.77;2.10;;;8.20;92.50;;;8.68;58.44;99369.63;4985848;28;122865;-74
2023/01/10 10:23:12;;;;;;;3.73;2.07;;;8.20;92.50;;;8.69;58.52;99371.25;4970315;28;113520;-74
2023/01/10 10:26:06;;;;;;;12.10;2.80;;;8.20;92.60;;;8.70;58.47;99370.13;4915790;28;114619;-75
2023/01/10 10:29:05;;;;;;;4.27;1.80;;;8.20;92.50;;;8.73;58.53;99366.84;4912653;28;124723;-74
2023/01/10 10:32:00;;;;;;;5.33;2.07;;;8.20;92.50;;;8.77;58.43;99373.41;4927693;28;123943;-87
2023/01/10 10:35:04;;;;;;;7.90;2.40;;;8.30;92.50;;;8.81;58.52;99377.25;4914373;28;113064;-75
2023/01/10 10:37:45;;;;;;;10.60;3.30;;;8.30;92.50;;;8.82;58.22;99375.31;4899089;28;113607;-73
2023/01/10 10:40:24;;;;;;;6.77;1.90;;;8.40;92.50;;;8.80;58.46;99370.06;4916060;28;123752;-74
2023/01/10 10:42:54;;;;;;;5.73;2.07;;;8.30;92.50;;;8.85;59.74;99381.06;4910082;28;123807;-73
2023/01/10 10:45:40;;;;;;;4.73;2.40;;;8.40;93.00;;;8.95;59.27;99371.06;4910836;28;114355;-73
2023/01/10 10:48:27;;;;;;;5.00;2.00;;;8.40;93.00;;;8.99;58.95;99359.16;4927129;28;114100;-75
2023/01/10 10:50:59;;;;;;;10.30;2.10;;;8.50;92.90;;;9.05;58.81;99354.44;4926571;28;124331;-74